Airfield :
LOGIN :

Register | Disclaimer

   EN    FR    IT 

 










Legend :    VFR   Marginal VFR   IFR   Intensive IFR   Very Intensive IFR
Visi :
Ceiling :
>= 8 km
>= 3000ft
5 to 8 km
1000 to 3000 ft
1500m to 5 km
500 to 1000 ft
800 to 1500m
200 to 500 ft
< 800m
< 200 ft
Symbols :   Thunderstorms  Fog  Heavy snow  Heavy precipitations  Wind > 20 kt
SIGMETs :     Misc.  Thunderstorms  Icing  Turbulence  Mountain Waves  Volcanic Ashes






- Airport Elevation : 184 ft
- IATA code : BRU


EBBR - Bruxelles

CURRENT METAR :
  • 312020Z 06004KT CAVOK 16/06 Q1021 NOSIG

EXPIRED METARs :
  • 311950Z 06004KT CAVOK 17/05 Q1021 NOSIG
  • 311920Z 06005KT CAVOK 18/05 Q1021 NOSIG
  • 311850Z 06005KT CAVOK 20/05 Q1021 NOSIG
  • 311820Z 07007KT 040V100 CAVOK 21/04 Q1021 NOSIG
  • 311750Z 08007KT 050V130 CAVOK 21/04 Q1021 NOSIG

TAF TAF EBBR
Valid from the 31 at 18:00 until the 02 at 00:00 UTC


311710Z 3118/0124 05008KT CAVOK



MET'MAP, your aeronautical weather chart ! - Copyright ORBIFLY December 2007 - Disclaimer

ORBIFLY MET'MAP TEAM :

Programming & Development : Alexandra Zaïnal
Concept & original design : Baudouin d'Aumeries
Assistance for programming : Marc-Olivier Méhu
Technical & hardware support : Manuel Goepfert

Contact : metmap@orbifly.com




SOURCES & CREDITS :

   NOAA